sensor_id;sensor_type;location;lat;lon;timestamp;P1;durP1;ratioP1;P2;durP2;ratioP2
82034;SDS011;71599;49.892;18.914;2024-02-16T00:04:52;11.40;;;5.15;;
82034;SDS011;71599;49.892;18.914;2024-02-16T00:09:53;6.68;;;4.40;;
82034;SDS011;71599;49.892;18.914;2024-02-16T00:14:54;10.73;;;4.82;;
82034;SDS011;71599;49.892;18.914;2024-02-16T00:19:56;6.88;;;4.05;;
82034;SDS011;71599;49.892;18.914;2024-02-16T00:24:57;7.15;;;4.30;;
82034;SDS011;71599;49.892;18.914;2024-02-16T00:29:58;6.95;;;4.43;;
82034;SDS011;71599;49.892;18.914;2024-02-16T00:35:01;9.02;;;4.50;;
82034;SDS011;71599;49.892;18.914;2024-02-16T00:40:02;9.20;;;4.65;;
82034;SDS011;71599;49.892;18.914;2024-02-16T00:50:06;7.03;;;4.18;;
82034;SDS011;71599;49.892;18.914;2024-02-16T00:55:07;8.32;;;5.10;;
82034;SDS011;71599;49.892;18.914;2024-02-16T01:00:09;7.07;;;4.30;;
82034;SDS011;71599;49.892;18.914;2024-02-16T01:05:12;6.43;;;4.65;;
82034;SDS011;71599;49.892;18.914;2024-02-16T01:10:13;7.40;;;4.75;;
82034;SDS011;71599;49.892;18.914;2024-02-16T01:15:14;10.45;;;6.07;;
82034;SDS011;71599;49.892;18.914;2024-02-16T01:20:17;11.48;;;6.95;;
82034;SDS011;71599;49.892;18.914;2024-02-16T01:25:17;13.32;;;6.78;;
82034;SDS011;71599;49.892;18.914;2024-02-16T01:30:18;12.18;;;6.45;;
82034;SDS011;71599;49.892;18.914;2024-02-16T01:35:20;12.70;;;7.70;;
82034;SDS011;71599;49.892;18.914;2024-02-16T01:40:21;16.23;;;10.10;;
82034;SDS011;71599;49.892;18.914;2024-02-16T01:45:22;16.77;;;8.90;;
82034;SDS011;71599;49.892;18.914;2024-02-16T01:50:25;12.23;;;8.13;;
82034;SDS011;71599;49.892;18.914;2024-02-16T01:55:26;17.35;;;10.13;;
82034;SDS011;71599;49.892;18.914;2024-02-16T02:00:27;17.35;;;10.13;;
82034;SDS011;71599;49.892;18.914;2024-02-16T02:05:29;17.02;;;9.75;;
82034;SDS011;71599;49.892;18.914;2024-02-16T02:10:32;19.50;;;10.43;;
82034;SDS011;71599;49.892;18.914;2024-02-16T02:15:33;18.20;;;11.82;;
82034;SDS011;71599;49.892;18.914;2024-02-16T02:20:35;18.77;;;12.70;;
82034;SDS011;71599;49.892;18.914;2024-02-16T02:25:38;34.90;;;18.02;;
82034;SDS011;71599;49.892;18.914;2024-02-16T02:30:38;25.65;;;15.50;;
82034;SDS011;71599;49.892;18.914;2024-02-16T02:35:39;33.58;;;17.80;;
82034;SDS011;71599;49.892;18.914;2024-02-16T02:40:42;31.88;;;17.30;;
82034;SDS011;71599;49.892;18.914;2024-02-16T02:45:43;35.33;;;17.30;;
82034;SDS011;71599;49.892;18.914;2024-02-16T02:50:44;37.83;;;19.52;;
82034;SDS011;71599;49.892;18.914;2024-02-16T02:55:46;37.45;;;17.90;;
82034;SDS011;71599;49.892;18.914;2024-02-16T03:00:47;32.55;;;17.33;;
82034;SDS011;71599;49.892;18.914;2024-02-16T03:05:48;25.05;;;15.23;;
82034;SDS011;71599;49.892;18.914;2024-02-16T03:10:51;24.13;;;14.05;;
82034;SDS011;71599;49.892;18.914;2024-02-16T03:15:52;29.65;;;15.57;;
82034;SDS011;71599;49.892;18.914;2024-02-16T03:20:53;27.00;;;15.00;;
82034;SDS011;71599;49.892;18.914;2024-02-16T03:25:56;21.13;;;13.35;;
82034;SDS011;71599;49.892;18.914;2024-02-16T03:30:57;23.20;;;15.07;;
82034;SDS011;71599;49.892;18.914;2024-02-16T03:35:58;32.03;;;18.40;;
82034;SDS011;71599;49.892;18.914;2024-02-16T03:41:00;26.33;;;15.25;;
82034;SDS011;71599;49.892;18.914;2024-02-16T03:46:01;25.17;;;14.57;;
82034;SDS011;71599;49.892;18.914;2024-02-16T03:51:02;20.27;;;12.57;;
82034;SDS011;71599;49.892;18.914;2024-02-16T03:56:05;31.77;;;20.17;;
82034;SDS011;71599;49.892;18.914;2024-02-16T04:01:06;36.17;;;22.85;;
82034;SDS011;71599;49.892;18.914;2024-02-16T04:06:07;50.15;;;30.45;;
82034;SDS011;71599;49.892;18.914;2024-02-16T04:11:12;92.97;;;48.25;;
82034;SDS011;71599;49.892;18.914;2024-02-16T04:16:13;95.50;;;48.88;;
82034;SDS011;71599;49.892;18.914;2024-02-16T04:21:14;62.60;;;34.30;;
82034;SDS011;71599;49.892;18.914;2024-02-16T04:26:16;30.48;;;21.38;;
82034;SDS011;71599;49.892;18.914;2024-02-16T04:31:17;28.15;;;16.90;;
82034;SDS011;71599;49.892;18.914;2024-02-16T04:36:18;55.00;;;40.20;;
82034;SDS011;71599;49.892;18.914;2024-02-16T04:41:20;67.03;;;45.42;;
82034;SDS011;71599;49.892;18.914;2024-02-16T04:46:21;57.22;;;37.95;;
82034;SDS011;71599;49.892;18.914;2024-02-16T04:51:23;95.97;;;56.22;;
82034;SDS011;71599;49.892;18.914;2024-02-16T04:56:25;125.00;;;51.08;;
82034;SDS011;71599;49.892;18.914;2024-02-16T05:01:26;157.88;;;74.40;;
82034;SDS011;71599;49.892;18.914;2024-02-16T05:06:27;69.80;;;33.95;;
82034;SDS011;71599;49.892;18.914;2024-02-16T05:11:29;42.22;;;22.45;;
82034;SDS011;71599;49.892;18.914;2024-02-16T05:16:32;26.52;;;16.45;;
82034;SDS011;71599;49.892;18.914;2024-02-16T05:21:33;49.08;;;29.55;;
82034;SDS011;71599;49.892;18.914;2024-02-16T05:26:35;45.75;;;27.73;;
82034;SDS011;71599;49.892;18.914;2024-02-16T05:31:37;59.90;;;34.35;;
82034;SDS011;71599;49.892;18.914;2024-02-16T05:36:37;62.67;;;35.00;;
82034;SDS011;71599;49.892;18.914;2024-02-16T05:41:40;63.63;;;35.95;;
82034;SDS011;71599;49.892;18.914;2024-02-16T05:46:40;54.85;;;31.27;;
82034;SDS011;71599;49.892;18.914;2024-02-16T05:51:41;45.20;;;28.05;;
82034;SDS011;71599;49.892;18.914;2024-02-16T05:56:43;39.60;;;25.20;;
82034;SDS011;71599;49.892;18.914;2024-02-16T06:01:44;42.00;;;25.40;;
82034;SDS011;71599;49.892;18.914;2024-02-16T06:06:45;34.17;;;23.30;;
82034;SDS011;71599;49.892;18.914;2024-02-16T06:11:47;47.03;;;27.38;;
82034;SDS011;71599;49.892;18.914;2024-02-16T06:16:48;45.80;;;27.30;;
82034;SDS011;71599;49.892;18.914;2024-02-16T06:21:49;63.78;;;37.42;;
82034;SDS011;71599;49.892;18.914;2024-02-16T06:26:51;47.72;;;27.30;;
82034;SDS011;71599;49.892;18.914;2024-02-16T06:31:53;45.90;;;27.70;;
82034;SDS011;71599;49.892;18.914;2024-02-16T06:36:54;39.65;;;22.02;;
82034;SDS011;71599;49.892;18.914;2024-02-16T06:41:56;30.85;;;19.17;;
82034;SDS011;71599;49.892;18.914;2024-02-16T06:46:57;36.10;;;20.58;;
82034;SDS011;71599;49.892;18.914;2024-02-16T06:51:58;36.35;;;23.23;;
82034;SDS011;71599;49.892;18.914;2024-02-16T06:57:00;28.30;;;17.20;;
82034;SDS011;71599;49.892;18.914;2024-02-16T07:02:01;33.78;;;17.30;;
82034;SDS011;71599;49.892;18.914;2024-02-16T07:07:02;34.63;;;18.73;;
82034;SDS011;71599;49.892;18.914;2024-02-16T07:12:05;32.92;;;18.58;;
82034;SDS011;71599;49.892;18.914;2024-02-16T07:17:07;37.85;;;22.30;;
82034;SDS011;71599;49.892;18.914;2024-02-16T07:22:08;44.50;;;23.15;;
82034;SDS011;71599;49.892;18.914;2024-02-16T07:27:12;50.08;;;28.05;;
82034;SDS011;71599;49.892;18.914;2024-02-16T07:32:15;59.65;;;33.83;;
82034;SDS011;71599;49.892;18.914;2024-02-16T07:37:16;68.88;;;40.20;;
82034;SDS011;71599;49.892;18.914;2024-02-16T07:42:19;72.35;;;45.05;;
82034;SDS011;71599;49.892;18.914;2024-02-16T07:47:19;73.00;;;42.58;;
82034;SDS011;71599;49.892;18.914;2024-02-16T07:52:21;72.28;;;41.67;;
82034;SDS011;71599;49.892;18.914;2024-02-16T07:57:23;67.07;;;39.40;;
82034;SDS011;71599;49.892;18.914;2024-02-16T08:02:24;67.65;;;40.95;;
82034;SDS011;71599;49.892;18.914;2024-02-16T08:07:25;63.67;;;39.88;;
82034;SDS011;71599;49.892;18.914;2024-02-16T08:12:27;67.55;;;40.88;;
82034;SDS011;71599;49.892;18.914;2024-02-16T08:17:28;62.45;;;35.05;;
82034;SDS011;71599;49.892;18.914;2024-02-16T08:22:29;55.20;;;36.22;;
82034;SDS011;71599;49.892;18.914;2024-02-16T08:27:31;58.22;;;37.55;;
82034;SDS011;71599;49.892;18.914;2024-02-16T08:32:32;48.33;;;30.83;;
82034;SDS011;71599;49.892;18.914;2024-02-16T08:37:33;46.53;;;30.00;;
82034;SDS011;71599;49.892;18.914;2024-02-16T08:42:35;54.60;;;32.03;;
82034;SDS011;71599;49.892;18.914;2024-02-16T08:47:36;44.67;;;31.27;;
82034;SDS011;71599;49.892;18.914;2024-02-16T08:52:37;46.80;;;30.63;;
82034;SDS011;71599;49.892;18.914;2024-02-16T08:57:40;44.13;;;28.45;;
82034;SDS011;71599;49.892;18.914;2024-02-16T09:02:41;38.25;;;24.83;;
82034;SDS011;71599;49.892;18.914;2024-02-16T09:12:44;33.88;;;22.13;;
82034;SDS011;71599;49.892;18.914;2024-02-16T09:17:44;24.17;;;17.00;;
82034;SDS011;71599;49.892;18.914;2024-02-16T09:27:47;2.10;;;1.25;;
82034;SDS011;71599;49.892;18.914;2024-02-16T09:32:49;2.38;;;1.70;;
82034;SDS011;71599;49.892;18.914;2024-02-16T09:37:50;2.10;;;1.25;;
82034;SDS011;71599;49.892;18.914;2024-02-16T09:42:52;3.35;;;1.42;;
82034;SDS011;71599;49.892;18.914;2024-02-16T09:47:53;4.13;;;1.33;;
82034;SDS011;71599;49.892;18.914;2024-02-16T09:52:56;1.30;;;1.20;;
82034;SDS011;71599;49.892;18.914;2024-02-16T09:58:01;3.47;;;1.35;;
82034;SDS011;71599;49.892;18.914;2024-02-16T10:03:02;4.13;;;2.20;;
82034;SDS011;71599;49.892;18.914;2024-02-16T10:08:10;1.77;;;1.48;;
82034;SDS011;71599;49.892;18.914;2024-02-16T10:13:13;3.50;;;1.75;;
82034;SDS011;71599;49.892;18.914;2024-02-16T10:18:15;1.52;;;1.17;;
82034;SDS011;71599;49.892;18.914;2024-02-16T10:23:16;4.25;;;1.83;;
82034;SDS011;71599;49.892;18.914;2024-02-16T10:28:19;2.80;;;1.58;;
82034;SDS011;71599;49.892;18.914;2024-02-16T10:33:20;2.35;;;1.48;;
82034;SDS011;71599;49.892;18.914;2024-02-16T10:38:21;2.50;;;1.67;;
82034;SDS011;71599;49.892;18.914;2024-02-16T10:43:24;3.05;;;1.60;;
82034;SDS011;71599;49.892;18.914;2024-02-16T10:48:26;2.60;;;1.50;;
82034;SDS011;71599;49.892;18.914;2024-02-16T10:53:27;2.78;;;2.08;;
82034;SDS011;71599;49.892;18.914;2024-02-16T10:58:30;3.08;;;1.45;;
82034;SDS011;71599;49.892;18.914;2024-02-16T11:03:31;12.88;;;5.43;;
82034;SDS011;71599;49.892;18.914;2024-02-16T11:08:37;17.77;;;7.30;;
82034;SDS011;71599;49.892;18.914;2024-02-16T11:13:40;8.25;;;4.45;;
82034;SDS011;71599;49.892;18.914;2024-02-16T11:18:43;10.68;;;5.30;;
82034;SDS011;71599;49.892;18.914;2024-02-16T11:23:46;12.70;;;5.20;;
82034;SDS011;71599;49.892;18.914;2024-02-16T11:28:48;5.60;;;2.88;;
82034;SDS011;71599;49.892;18.914;2024-02-16T11:33:50;2.40;;;1.92;;
82034;SDS011;71599;49.892;18.914;2024-02-16T11:38:51;7.53;;;2.63;;
82034;SDS011;71599;49.892;18.914;2024-02-16T11:43:59;3.58;;;2.28;;
82034;SDS011;71599;49.892;18.914;2024-02-16T11:49:05;2.97;;;1.80;;
82034;SDS011;71599;49.892;18.914;2024-02-16T11:54:06;2.97;;;1.95;;
82034;SDS011;71599;49.892;18.914;2024-02-16T11:59:11;2.85;;;1.75;;
82034;SDS011;71599;49.892;18.914;2024-02-16T12:04:18;7.60;;;3.83;;
82034;SDS011;71599;49.892;18.914;2024-02-16T12:09:21;3.20;;;2.03;;
82034;SDS011;71599;49.892;18.914;2024-02-16T12:14:23;6.90;;;4.95;;
82034;SDS011;71599;49.892;18.914;2024-02-16T12:19:25;8.25;;;4.55;;
82034;SDS011;71599;49.892;18.914;2024-02-16T12:24:26;10.20;;;5.30;;
82034;SDS011;71599;49.892;18.914;2024-02-16T12:29:28;7.28;;;5.35;;
82034;SDS011;71599;49.892;18.914;2024-02-16T12:34:29;8.77;;;4.30;;
82034;SDS011;71599;49.892;18.914;2024-02-16T12:39:30;4.90;;;2.45;;
82034;SDS011;71599;49.892;18.914;2024-02-16T12:44:32;5.88;;;2.70;;
82034;SDS011;71599;49.892;18.914;2024-02-16T12:49:33;2.03;;;1.55;;
82034;SDS011;71599;49.892;18.914;2024-02-16T12:54:34;4.82;;;1.98;;
82034;SDS011;71599;49.892;18.914;2024-02-16T12:59:36;2.67;;;2.08;;
82034;SDS011;71599;49.892;18.914;2024-02-16T13:04:37;4.35;;;2.25;;
82034;SDS011;71599;49.892;18.914;2024-02-16T13:09:38;3.42;;;1.77;;
82034;SDS011;71599;49.892;18.914;2024-02-16T13:14:40;3.33;;;1.65;;
82034;SDS011;71599;49.892;18.914;2024-02-16T13:19:41;4.72;;;2.45;;
82034;SDS011;71599;49.892;18.914;2024-02-16T13:24:42;4.38;;;1.50;;
82034;SDS011;71599;49.892;18.914;2024-02-16T13:29:44;3.13;;;1.85;;
82034;SDS011;71599;49.892;18.914;2024-02-16T13:34:45;2.90;;;1.92;;
82034;SDS011;71599;49.892;18.914;2024-02-16T13:39:46;2.58;;;1.77;;
82034;SDS011;71599;49.892;18.914;2024-02-16T13:44:48;3.92;;;2.20;;
82034;SDS011;71599;49.892;18.914;2024-02-16T13:49:49;1.98;;;1.70;;
82034;SDS011;71599;49.892;18.914;2024-02-16T13:54:50;3.03;;;1.60;;
82034;SDS011;71599;49.892;18.914;2024-02-16T13:59:53;2.13;;;1.70;;
82034;SDS011;71599;49.892;18.914;2024-02-16T14:04:54;2.95;;;1.95;;
82034;SDS011;71599;49.892;18.914;2024-02-16T14:09:55;3.70;;;2.00;;
82034;SDS011;71599;49.892;18.914;2024-02-16T14:14:57;2.00;;;1.58;;
82034;SDS011;71599;49.892;18.914;2024-02-16T14:19:58;3.47;;;2.17;;
82034;SDS011;71599;49.892;18.914;2024-02-16T14:24:59;3.28;;;2.20;;
82034;SDS011;71599;49.892;18.914;2024-02-16T14:30:01;3.00;;;2.42;;
82034;SDS011;71599;49.892;18.914;2024-02-16T14:35:02;2.85;;;1.95;;
82034;SDS011;71599;49.892;18.914;2024-02-16T14:40:04;3.47;;;2.22;;
82034;SDS011;71599;49.892;18.914;2024-02-16T14:45:08;2.72;;;2.00;;
82034;SDS011;71599;49.892;18.914;2024-02-16T14:50:09;2.78;;;2.00;;
82034;SDS011;71599;49.892;18.914;2024-02-16T14:55:10;3.45;;;2.20;;
82034;SDS011;71599;49.892;18.914;2024-02-16T15:00:13;2.72;;;1.75;;
82034;SDS011;71599;49.892;18.914;2024-02-16T15:05:15;3.17;;;2.08;;
82034;SDS011;71599;49.892;18.914;2024-02-16T15:10:16;4.03;;;1.63;;
82034;SDS011;71599;49.892;18.914;2024-02-16T15:15:18;7.00;;;3.83;;
82034;SDS011;71599;49.892;18.914;2024-02-16T15:20:19;4.22;;;2.72;;
82034;SDS011;71599;49.892;18.914;2024-02-16T15:25:20;4.50;;;2.63;;
82034;SDS011;71599;49.892;18.914;2024-02-16T15:30:23;3.45;;;1.90;;
82034;SDS011;71599;49.892;18.914;2024-02-16T15:35:24;3.17;;;2.28;;
82034;SDS011;71599;49.892;18.914;2024-02-16T15:40:25;3.53;;;2.50;;
82034;SDS011;71599;49.892;18.914;2024-02-16T15:45:27;5.38;;;2.90;;
82034;SDS011;71599;49.892;18.914;2024-02-16T15:50:28;6.40;;;3.20;;
82034;SDS011;71599;49.892;18.914;2024-02-16T15:55:29;5.95;;;3.50;;
82034;SDS011;71599;49.892;18.914;2024-02-16T16:00:31;5.90;;;3.13;;
82034;SDS011;71599;49.892;18.914;2024-02-16T16:05:32;3.92;;;2.75;;
82034;SDS011;71599;49.892;18.914;2024-02-16T16:10:33;4.60;;;3.05;;
82034;SDS011;71599;49.892;18.914;2024-02-16T16:15:35;4.03;;;3.28;;
82034;SDS011;71599;49.892;18.914;2024-02-16T16:20:36;6.85;;;3.70;;
82034;SDS011;71599;49.892;18.914;2024-02-16T16:25:37;5.47;;;3.67;;
82034;SDS011;71599;49.892;18.914;2024-02-16T16:30:39;9.18;;;4.70;;
82034;SDS011;71599;49.892;18.914;2024-02-16T16:35:40;10.13;;;5.32;;
82034;SDS011;71599;49.892;18.914;2024-02-16T16:40:41;8.82;;;5.25;;
82034;SDS011;71599;49.892;18.914;2024-02-16T16:45:43;7.75;;;4.30;;
82034;SDS011;71599;49.892;18.914;2024-02-16T16:50:44;8.27;;;4.50;;
82034;SDS011;71599;49.892;18.914;2024-02-16T17:00:47;15.43;;;6.95;;
82034;SDS011;71599;49.892;18.914;2024-02-16T17:05:48;14.95;;;7.53;;
82034;SDS011;71599;49.892;18.914;2024-02-16T17:10:49;17.60;;;9.52;;
82034;SDS011;71599;49.892;18.914;2024-02-16T17:20:52;17.70;;;8.98;;
82034;SDS011;71599;49.892;18.914;2024-02-16T17:25:53;20.85;;;10.73;;
82034;SDS011;71599;49.892;18.914;2024-02-16T17:30:55;86.90;;;32.95;;
82034;SDS011;71599;49.892;18.914;2024-02-16T17:35:56;98.82;;;38.22;;
82034;SDS011;71599;49.892;18.914;2024-02-16T17:45:59;36.83;;;16.95;;
82034;SDS011;71599;49.892;18.914;2024-02-16T17:51:00;36.75;;;17.23;;
82034;SDS011;71599;49.892;18.914;2024-02-16T17:56:02;27.83;;;12.90;;
82034;SDS011;71599;49.892;18.914;2024-02-16T18:01:04;19.98;;;9.90;;
82034;SDS011;71599;49.892;18.914;2024-02-16T18:06:06;69.45;;;29.48;;
82034;SDS011;71599;49.892;18.914;2024-02-16T18:11:07;35.13;;;18.83;;
82034;SDS011;71599;49.892;18.914;2024-02-16T18:16:10;24.80;;;12.10;;
82034;SDS011;71599;49.892;18.914;2024-02-16T18:21:10;13.02;;;8.45;;
82034;SDS011;71599;49.892;18.914;2024-02-16T18:26:11;13.02;;;7.10;;
82034;SDS011;71599;49.892;18.914;2024-02-16T18:31:14;15.88;;;9.50;;
82034;SDS011;71599;49.892;18.914;2024-02-16T18:36:15;17.92;;;8.52;;
82034;SDS011;71599;49.892;18.914;2024-02-16T18:41:16;21.33;;;9.60;;
82034;SDS011;71599;49.892;18.914;2024-02-16T18:46:18;15.40;;;8.23;;
82034;SDS011;71599;49.892;18.914;2024-02-16T18:51:19;16.05;;;7.90;;
82034;SDS011;71599;49.892;18.914;2024-02-16T18:56:20;19.70;;;9.98;;
82034;SDS011;71599;49.892;18.914;2024-02-16T19:01:22;15.18;;;7.38;;
82034;SDS011;71599;49.892;18.914;2024-02-16T19:06:23;12.40;;;7.55;;
82034;SDS011;71599;49.892;18.914;2024-02-16T19:16:27;13.77;;;7.40;;
82034;SDS011;71599;49.892;18.914;2024-02-16T19:21:28;13.20;;;6.75;;
82034;SDS011;71599;49.892;18.914;2024-02-16T19:26:29;11.68;;;5.72;;
82034;SDS011;71599;49.892;18.914;2024-02-16T19:31:31;10.27;;;6.60;;
82034;SDS011;71599;49.892;18.914;2024-02-16T19:36:32;12.75;;;6.38;;
82034;SDS011;71599;49.892;18.914;2024-02-16T19:41:33;9.52;;;5.68;;
82034;SDS011;71599;49.892;18.914;2024-02-16T19:46:36;16.77;;;9.45;;
82034;SDS011;71599;49.892;18.914;2024-02-16T19:51:37;10.73;;;6.00;;
82034;SDS011;71599;49.892;18.914;2024-02-16T19:56:38;8.70;;;4.95;;
82034;SDS011;71599;49.892;18.914;2024-02-16T20:01:40;9.70;;;5.32;;
82034;SDS011;71599;49.892;18.914;2024-02-16T20:06:41;10.80;;;6.60;;
82034;SDS011;71599;49.892;18.914;2024-02-16T20:11:42;16.42;;;8.52;;
82034;SDS011;71599;49.892;18.914;2024-02-16T20:16:45;15.05;;;7.15;;
82034;SDS011;71599;49.892;18.914;2024-02-16T20:21:46;17.75;;;7.68;;
82034;SDS011;71599;49.892;18.914;2024-02-16T20:26:47;13.02;;;6.70;;
82034;SDS011;71599;49.892;18.914;2024-02-16T20:31:50;14.77;;;8.00;;
82034;SDS011;71599;49.892;18.914;2024-02-16T20:36:51;20.02;;;7.68;;
82034;SDS011;71599;49.892;18.914;2024-02-16T20:41:52;29.00;;;12.30;;
82034;SDS011;71599;49.892;18.914;2024-02-16T20:46:54;34.28;;;12.93;;
82034;SDS011;71599;49.892;18.914;2024-02-16T20:51:55;17.42;;;9.07;;
82034;SDS011;71599;49.892;18.914;2024-02-16T20:56:56;32.17;;;13.55;;
82034;SDS011;71599;49.892;18.914;2024-02-16T21:01:58;18.90;;;9.35;;
82034;SDS011;71599;49.892;18.914;2024-02-16T21:06:59;22.80;;;8.82;;
82034;SDS011;71599;49.892;18.914;2024-02-16T21:12:00;23.20;;;8.95;;
82034;SDS011;71599;49.892;18.914;2024-02-16T21:17:02;31.45;;;14.50;;
82034;SDS011;71599;49.892;18.914;2024-02-16T21:22:04;32.15;;;12.85;;
82034;SDS011;71599;49.892;18.914;2024-02-16T21:27:05;32.45;;;13.20;;
82034;SDS011;71599;49.892;18.914;2024-02-16T21:32:07;30.05;;;11.70;;
82034;SDS011;71599;49.892;18.914;2024-02-16T21:37:08;34.42;;;14.85;;
82034;SDS011;71599;49.892;18.914;2024-02-16T21:42:10;21.02;;;9.85;;
82034;SDS011;71599;49.892;18.914;2024-02-16T21:47:12;16.05;;;8.63;;
82034;SDS011;71599;49.892;18.914;2024-02-16T21:52:13;22.42;;;10.38;;
82034;SDS011;71599;49.892;18.914;2024-02-16T21:57:14;25.35;;;11.10;;
82034;SDS011;71599;49.892;18.914;2024-02-16T22:02:16;23.85;;;12.95;;
82034;SDS011;71599;49.892;18.914;2024-02-16T22:07:17;26.92;;;12.52;;
82034;SDS011;71599;49.892;18.914;2024-02-16T22:12:18;18.90;;;10.00;;
82034;SDS011;71599;49.892;18.914;2024-02-16T22:17:20;23.98;;;11.60;;
82034;SDS011;71599;49.892;18.914;2024-02-16T22:22:21;21.20;;;11.55;;
82034;SDS011;71599;49.892;18.914;2024-02-16T22:27:22;21.58;;;11.60;;
82034;SDS011;71599;49.892;18.914;2024-02-16T22:32:25;23.80;;;11.55;;
82034;SDS011;71599;49.892;18.914;2024-02-16T22:37:25;19.30;;;10.77;;
82034;SDS011;71599;49.892;18.914;2024-02-16T22:42:26;16.85;;;10.27;;
82034;SDS011;71599;49.892;18.914;2024-02-16T22:47:29;17.67;;;10.18;;
82034;SDS011;71599;49.892;18.914;2024-02-16T22:52:29;21.08;;;10.68;;
82034;SDS011;71599;49.892;18.914;2024-02-16T22:57:30;18.38;;;10.68;;
82034;SDS011;71599;49.892;18.914;2024-02-16T23:02:33;18.52;;;9.18;;
82034;SDS011;71599;49.892;18.914;2024-02-16T23:07:34;17.45;;;9.45;;
82034;SDS011;71599;49.892;18.914;2024-02-16T23:12:35;18.88;;;10.68;;
82034;SDS011;71599;49.892;18.914;2024-02-16T23:17:37;18.02;;;9.93;;
82034;SDS011;71599;49.892;18.914;2024-02-16T23:22:55;14.05;;;8.90;;
82034;SDS011;71599;49.892;18.914;2024-02-16T23:27:57;11.52;;;7.45;;
82034;SDS011;71599;49.892;18.914;2024-02-16T23:32:59;14.77;;;8.02;;
82034;SDS011;71599;49.892;18.914;2024-02-16T23:38:00;9.98;;;6.47;;
82034;SDS011;71599;49.892;18.914;2024-02-16T23:43:01;14.70;;;6.85;;
82034;SDS011;71599;49.892;18.914;2024-02-16T23:48:04;14.82;;;6.97;;
82034;SDS011;71599;49.892;18.914;2024-02-16T23:53:05;11.27;;;6.53;;
82034;SDS011;71599;49.892;18.914;2024-02-16T23:58:06;11.82;;;6.07;;
